CheckWX is a tool to help pilots better visualize weather data.  It is not intended as a substitute for an official pre-flight weather briefing.

06:09:33 UTC

KFMY METAR
Page Field Airport
Fort Myers, Florida, USA
Current

17 mins ago

KFMY 230553Z AUTO 07004KT 10SM CLR 18/15 A3011 RMK AO2 SLP198 T01830150 10239 20183 58004
Observed
Apr-23 @ 05:53 UTC
Wind
  • 070° at 4 KTS
Visibility
10 SM
Flight Rules
VFR
Cloud Levels
  • Clear skies
Temperature
18°C / 64°F
Dewpoint
15°C / 59°F
Humidity
83%
Altimeter
30.11" Hg
Pressure
1019.62 hPa
Previous

1 hour ago

KFMY 230453Z AUTO 09005KT 10SM CLR 19/15 A3012 RMK AO2 SLP202 T01940150 402830133
Observed
Apr-23 @ 04:53 UTC
Wind
  • 090° at 5 KTS
Visibility
10 SM
Flight Rules
VFR
Cloud Levels
  • Clear skies
Temperature
19°C / 66°F
Dewpoint
15°C / 59°F
Humidity
78%
Altimeter
30.12" Hg
Pressure
1020.02 hPa
Previous

2 hours ago

KFMY 230353Z AUTO 11003KT 10SM CLR 20/14 A3012 RMK AO2 SLP200 T02000144
Observed
Apr-23 @ 03:53 UTC
Wind
  • 110° at 3 KTS
Visibility
10 SM
Flight Rules
VFR
Cloud Levels
  • Clear skies
Temperature
20°C / 68°F
Dewpoint
14°C / 57°F
Humidity
69%
Altimeter
30.12" Hg
Pressure
1020.02 hPa